sensor_id;sensor_type;location;lat;lon;timestamp;temperature;humidity
4052;DHT22;2040;50.924;11.604;2022-10-16T00:01:23;15.40;99.90
4052;DHT22;2040;50.924;11.604;2022-10-16T00:03:50;15.40;99.90
4052;DHT22;2040;50.924;11.604;2022-10-16T00:06:18;15.30;99.90
4052;DHT22;2040;50.924;11.604;2022-10-16T00:08:44;15.30;99.90
4052;DHT22;2040;50.924;11.604;2022-10-16T00:11:12;15.40;99.90
4052;DHT22;2040;50.924;11.604;2022-10-16T00:13:40;15.40;99.90
4052;DHT22;2040;50.924;11.604;2022-10-16T00:16:06;15.50;99.90
4052;DHT22;2040;50.924;11.604;2022-10-16T00:18:32;15.40;99.90
4052;DHT22;2040;50.924;11.604;2022-10-16T00:21:06;15.40;99.90
4052;DHT22;2040;50.924;11.604;2022-10-16T00:23:32;15.40;99.90
4052;DHT22;2040;50.924;11.604;2022-10-16T00:26:00;15.40;99.90
4052;DHT22;2040;50.924;11.604;2022-10-16T00:28:27;15.50;99.90
4052;DHT22;2040;50.924;11.604;2022-10-16T00:30:53;15.40;99.90
4052;DHT22;2040;50.924;11.604;2022-10-16T00:33:19;15.40;99.90
4052;DHT22;2040;50.924;11.604;2022-10-16T00:35:44;15.40;99.90
4052;DHT22;2040;50.924;11.604;2022-10-16T00:38:10;15.30;99.90
4052;DHT22;2040;50.924;11.604;2022-10-16T00:40:35;15.20;99.90
4052;DHT22;2040;50.924;11.604;2022-10-16T00:43:01;15.20;99.90
4052;DHT22;2040;50.924;11.604;2022-10-16T00:45:27;15.20;99.90
4052;DHT22;2040;50.924;11.604;2022-10-16T00:47:54;15.20;99.90
4052;DHT22;2040;50.924;11.604;2022-10-16T00:50:32;15.30;99.90
4052;DHT22;2040;50.924;11.604;2022-10-16T00:52:58;15.30;99.90
4052;DHT22;2040;50.924;11.604;2022-10-16T00:55:26;15.20;99.90
4052;DHT22;2040;50.924;11.604;2022-10-16T00:57:53;15.10;99.90
4052;DHT22;2040;50.924;11.604;2022-10-16T01:00:24;15.10;99.90
4052;DHT22;2040;50.924;11.604;2022-10-16T01:02:56;15.00;99.90
4052;DHT22;2040;50.924;11.604;2022-10-16T01:05:24;15.00;99.90
4052;DHT22;2040;50.924;11.604;2022-10-16T01:10:33;14.90;99.90
4052;DHT22;2040;50.924;11.604;2022-10-16T01:13:10;14.80;99.90
4052;DHT22;2040;50.924;11.604;2022-10-16T01:16:00;14.90;99.90
4052;DHT22;2040;50.924;11.604;2022-10-16T01:21:03;15.00;99.90
4052;DHT22;2040;50.924;11.604;2022-10-16T01:24:06;15.10;99.90
4052;DHT22;2040;50.924;11.604;2022-10-16T01:32:10;15.00;99.90
4052;DHT22;2040;50.924;11.604;2022-10-16T01:34:49;15.00;99.90
4052;DHT22;2040;50.924;11.604;2022-10-16T01:37:25;15.10;99.90
4052;DHT22;2040;50.924;11.604;2022-10-16T01:39:55;15.00;99.90
4052;DHT22;2040;50.924;11.604;2022-10-16T01:42:29;15.00;99.90
4052;DHT22;2040;50.924;11.604;2022-10-16T01:44:57;14.90;99.90
4052;DHT22;2040;50.924;11.604;2022-10-16T01:47:25;14.80;99.90
4052;DHT22;2040;50.924;11.604;2022-10-16T01:49:53;14.80;99.90
4052;DHT22;2040;50.924;11.604;2022-10-16T01:52:21;14.80;99.90
4052;DHT22;2040;50.924;11.604;2022-10-16T01:54:51;14.80;99.90
4052;DHT22;2040;50.924;11.604;2022-10-16T01:57:19;14.70;99.90
4052;DHT22;2040;50.924;11.604;2022-10-16T01:59:49;14.70;99.90
4052;DHT22;2040;50.924;11.604;2022-10-16T02:02:17;14.60;99.90
4052;DHT22;2040;50.924;11.604;2022-10-16T02:04:51;14.70;99.90
4052;DHT22;2040;50.924;11.604;2022-10-16T02:07:18;14.60;99.90
4052;DHT22;2040;50.924;11.604;2022-10-16T02:09:44;14.60;99.90
4052;DHT22;2040;50.924;11.604;2022-10-16T02:12:15;14.60;99.90
4052;DHT22;2040;50.924;11.604;2022-10-16T02:14:45;14.60;99.90
4052;DHT22;2040;50.924;11.604;2022-10-16T02:17:13;14.50;99.90
4052;DHT22;2040;50.924;11.604;2022-10-16T02:19:43;14.50;99.90
4052;DHT22;2040;50.924;11.604;2022-10-16T02:22:14;14.50;99.90
4052;DHT22;2040;50.924;11.604;2022-10-16T02:27:38;14.40;99.90
4052;DHT22;2040;50.924;11.604;2022-10-16T02:30:11;14.40;99.90
4052;DHT22;2040;50.924;11.604;2022-10-16T02:32:41;14.30;99.90
4052;DHT22;2040;50.924;11.604;2022-10-16T02:35:08;14.20;99.90
4052;DHT22;2040;50.924;11.604;2022-10-16T02:37:36;14.20;99.90
4052;DHT22;2040;50.924;11.604;2022-10-16T02:40:03;14.20;99.90
4052;DHT22;2040;50.924;11.604;2022-10-16T02:42:35;14.10;99.90
4052;DHT22;2040;50.924;11.604;2022-10-16T02:45:02;14.10;99.90
4052;DHT22;2040;50.924;11.604;2022-10-16T02:47:29;14.30;99.90
4052;DHT22;2040;50.924;11.604;2022-10-16T02:49:54;14.40;99.90
4052;DHT22;2040;50.924;11.604;2022-10-16T02:52:20;14.50;99.90
4052;DHT22;2040;50.924;11.604;2022-10-16T02:54:46;14.60;99.90
4052;DHT22;2040;50.924;11.604;2022-10-16T02:57:11;14.60;99.90
4052;DHT22;2040;50.924;11.604;2022-10-16T02:59:37;14.60;99.90
4052;DHT22;2040;50.924;11.604;2022-10-16T03:02:03;14.80;99.90
4052;DHT22;2040;50.924;11.604;2022-10-16T03:04:28;14.70;99.90
4052;DHT22;2040;50.924;11.604;2022-10-16T03:06:54;14.70;99.90
4052;DHT22;2040;50.924;11.604;2022-10-16T03:09:19;14.80;99.90
4052;DHT22;2040;50.924;11.604;2022-10-16T03:11:45;14.90;99.90
4052;DHT22;2040;50.924;11.604;2022-10-16T03:14:10;14.70;99.90
4052;DHT22;2040;50.924;11.604;2022-10-16T03:16:36;14.60;99.90
4052;DHT22;2040;50.924;11.604;2022-10-16T03:19:02;14.50;99.90
4052;DHT22;2040;50.924;11.604;2022-10-16T03:21:27;14.40;99.90
4052;DHT22;2040;50.924;11.604;2022-10-16T03:23:53;14.30;99.90
4052;DHT22;2040;50.924;11.604;2022-10-16T03:26:19;14.30;99.90
4052;DHT22;2040;50.924;11.604;2022-10-16T03:28:44;14.30;99.90
4052;DHT22;2040;50.924;11.604;2022-10-16T03:31:10;14.40;99.90
4052;DHT22;2040;50.924;11.604;2022-10-16T03:33:35;14.50;99.90
4052;DHT22;2040;50.924;11.604;2022-10-16T03:36:01;14.40;99.90
4052;DHT22;2040;50.924;11.604;2022-10-16T03:38:26;14.30;99.90
4052;DHT22;2040;50.924;11.604;2022-10-16T03:40:52;14.30;99.90
4052;DHT22;2040;50.924;11.604;2022-10-16T03:43:18;14.30;99.90
4052;DHT22;2040;50.924;11.604;2022-10-16T03:45:43;14.20;99.90
4052;DHT22;2040;50.924;11.604;2022-10-16T03:48:09;14.20;99.90
4052;DHT22;2040;50.924;11.604;2022-10-16T03:50:34;14.40;99.90
4052;DHT22;2040;50.924;11.604;2022-10-16T03:53:00;14.30;99.90
4052;DHT22;2040;50.924;11.604;2022-10-16T03:55:26;14.30;99.90
4052;DHT22;2040;50.924;11.604;2022-10-16T03:57:51;14.60;99.90
4052;DHT22;2040;50.924;11.604;2022-10-16T04:00:17;14.60;99.90
4052;DHT22;2040;50.924;11.604;2022-10-16T04:02:42;14.60;99.90
4052;DHT22;2040;50.924;11.604;2022-10-16T04:05:08;14.50;99.90
4052;DHT22;2040;50.924;11.604;2022-10-16T04:07:34;14.40;99.90
4052;DHT22;2040;50.924;11.604;2022-10-16T04:10:00;14.30;99.90
4052;DHT22;2040;50.924;11.604;2022-10-16T04:12:26;14.20;99.90
4052;DHT22;2040;50.924;11.604;2022-10-16T04:14:52;14.10;99.90
4052;DHT22;2040;50.924;11.604;2022-10-16T04:17:17;14.00;99.90
4052;DHT22;2040;50.924;11.604;2022-10-16T04:19:43;14.00;99.90
4052;DHT22;2040;50.924;11.604;2022-10-16T04:22:08;14.00;99.90
4052;DHT22;2040;50.924;11.604;2022-10-16T04:24:34;14.00;99.90
4052;DHT22;2040;50.924;11.604;2022-10-16T04:27:00;14.00;99.90
4052;DHT22;2040;50.924;11.604;2022-10-16T04:29:25;13.90;99.90
4052;DHT22;2040;50.924;11.604;2022-10-16T04:31:51;13.90;99.90
4052;DHT22;2040;50.924;11.604;2022-10-16T04:34:16;13.90;99.90
4052;DHT22;2040;50.924;11.604;2022-10-16T04:36:42;14.00;99.90
4052;DHT22;2040;50.924;11.604;2022-10-16T04:39:08;14.00;99.90
4052;DHT22;2040;50.924;11.604;2022-10-16T04:41:33;14.10;99.90
4052;DHT22;2040;50.924;11.604;2022-10-16T04:43:59;14.10;99.90
4052;DHT22;2040;50.924;11.604;2022-10-16T04:46:24;14.10;99.90
4052;DHT22;2040;50.924;11.604;2022-10-16T04:48:50;14.00;99.90
4052;DHT22;2040;50.924;11.604;2022-10-16T04:51:16;13.90;99.90
4052;DHT22;2040;50.924;11.604;2022-10-16T04:53:41;13.90;99.90
4052;DHT22;2040;50.924;11.604;2022-10-16T04:56:07;13.90;99.90
4052;DHT22;2040;50.924;11.604;2022-10-16T04:58:32;13.90;99.90
4052;DHT22;2040;50.924;11.604;2022-10-16T05:00:58;13.90;99.90
4052;DHT22;2040;50.924;11.604;2022-10-16T05:03:24;13.90;99.90
4052;DHT22;2040;50.924;11.604;2022-10-16T05:05:49;13.90;99.90
4052;DHT22;2040;50.924;11.604;2022-10-16T05:08:16;13.90;99.90
4052;DHT22;2040;50.924;11.604;2022-10-16T05:10:43;13.90;99.90
4052;DHT22;2040;50.924;11.604;2022-10-16T05:13:09;13.90;99.90
4052;DHT22;2040;50.924;11.604;2022-10-16T05:15:35;13.80;99.90
4052;DHT22;2040;50.924;11.604;2022-10-16T05:18:00;13.80;99.90
4052;DHT22;2040;50.924;11.604;2022-10-16T05:20:26;13.80;99.90
4052;DHT22;2040;50.924;11.604;2022-10-16T05:22:51;13.80;99.90
4052;DHT22;2040;50.924;11.604;2022-10-16T05:25:17;13.80;99.90
4052;DHT22;2040;50.924;11.604;2022-10-16T05:27:46;13.80;99.90
4052;DHT22;2040;50.924;11.604;2022-10-16T05:30:12;13.80;99.90
4052;DHT22;2040;50.924;11.604;2022-10-16T05:32:37;13.70;99.90
4052;DHT22;2040;50.924;11.604;2022-10-16T05:35:03;13.70;99.90
4052;DHT22;2040;50.924;11.604;2022-10-16T05:37:29;13.60;99.90
4052;DHT22;2040;50.924;11.604;2022-10-16T05:39:55;13.60;99.90
4052;DHT22;2040;50.924;11.604;2022-10-16T05:42:20;13.50;99.90
4052;DHT22;2040;50.924;11.604;2022-10-16T05:44:46;13.60;99.90
4052;DHT22;2040;50.924;11.604;2022-10-16T05:47:12;13.60;99.90
4052;DHT22;2040;50.924;11.604;2022-10-16T05:49:38;13.70;99.90
4052;DHT22;2040;50.924;11.604;2022-10-16T05:52:03;13.60;99.90
4052;DHT22;2040;50.924;11.604;2022-10-16T05:54:29;13.60;99.90
4052;DHT22;2040;50.924;11.604;2022-10-16T05:56:55;13.60;99.90
4052;DHT22;2040;50.924;11.604;2022-10-16T05:59:20;13.60;99.90
4052;DHT22;2040;50.924;11.604;2022-10-16T06:01:46;13.70;99.90
4052;DHT22;2040;50.924;11.604;2022-10-16T06:04:12;13.70;99.90
4052;DHT22;2040;50.924;11.604;2022-10-16T06:06:37;13.80;99.90
4052;DHT22;2040;50.924;11.604;2022-10-16T06:09:04;13.70;99.90
4052;DHT22;2040;50.924;11.604;2022-10-16T06:11:31;13.80;99.90
4052;DHT22;2040;50.924;11.604;2022-10-16T06:13:59;13.90;99.90
4052;DHT22;2040;50.924;11.604;2022-10-16T06:16:27;13.90;99.90
4052;DHT22;2040;50.924;11.604;2022-10-16T06:18:54;14.00;99.90
4052;DHT22;2040;50.924;11.604;2022-10-16T06:21:22;14.10;99.90
4052;DHT22;2040;50.924;11.604;2022-10-16T06:23:50;14.10;99.90
4052;DHT22;2040;50.924;11.604;2022-10-16T06:26:19;14.20;99.90
4052;DHT22;2040;50.924;11.604;2022-10-16T06:28:45;14.20;99.90
4052;DHT22;2040;50.924;11.604;2022-10-16T06:31:12;14.30;99.90
4052;DHT22;2040;50.924;11.604;2022-10-16T06:33:38;14.40;99.90
4052;DHT22;2040;50.924;11.604;2022-10-16T06:36:23;14.40;99.90
4052;DHT22;2040;50.924;11.604;2022-10-16T06:38:50;14.50;99.90
4052;DHT22;2040;50.924;11.604;2022-10-16T06:41:21;14.60;99.90
4052;DHT22;2040;50.924;11.604;2022-10-16T06:43:47;14.60;99.90
4052;DHT22;2040;50.924;11.604;2022-10-16T06:46:15;14.70;99.90
4052;DHT22;2040;50.924;11.604;2022-10-16T06:48:41;14.80;99.90
4052;DHT22;2040;50.924;11.604;2022-10-16T06:51:11;14.90;99.90
4052;DHT22;2040;50.924;11.604;2022-10-16T06:53:41;14.90;99.90
4052;DHT22;2040;50.924;11.604;2022-10-16T06:56:09;14.90;99.90
4052;DHT22;2040;50.924;11.604;2022-10-16T06:58:35;15.00;99.90
4052;DHT22;2040;50.924;11.604;2022-10-16T07:01:01;15.10;99.90
4052;DHT22;2040;50.924;11.604;2022-10-16T07:03:27;15.10;99.90
4052;DHT22;2040;50.924;11.604;2022-10-16T07:05:52;15.10;99.90
4052;DHT22;2040;50.924;11.604;2022-10-16T07:08:18;15.10;99.90
4052;DHT22;2040;50.924;11.604;2022-10-16T07:10:43;15.10;99.90
4052;DHT22;2040;50.924;11.604;2022-10-16T07:13:09;15.10;99.90
4052;DHT22;2040;50.924;11.604;2022-10-16T07:15:38;15.10;99.90
4052;DHT22;2040;50.924;11.604;2022-10-16T07:18:04;15.10;99.90
4052;DHT22;2040;50.924;11.604;2022-10-16T07:20:29;15.10;99.90
4052;DHT22;2040;50.924;11.604;2022-10-16T07:22:55;15.10;99.90
4052;DHT22;2040;50.924;11.604;2022-10-16T07:25:21;15.10;99.90
4052;DHT22;2040;50.924;11.604;2022-10-16T07:27:46;15.10;99.90
4052;DHT22;2040;50.924;11.604;2022-10-16T07:30:12;15.10;99.90
4052;DHT22;2040;50.924;11.604;2022-10-16T07:32:37;15.20;99.90
4052;DHT22;2040;50.924;11.604;2022-10-16T07:35:04;15.30;99.90
4052;DHT22;2040;50.924;11.604;2022-10-16T07:37:30;15.40;99.90
4052;DHT22;2040;50.924;11.604;2022-10-16T07:39:55;15.40;99.90
4052;DHT22;2040;50.924;11.604;2022-10-16T07:42:21;15.50;99.90
4052;DHT22;2040;50.924;11.604;2022-10-16T07:44:46;15.50;99.90
4052;DHT22;2040;50.924;11.604;2022-10-16T07:47:12;15.60;99.90
4052;DHT22;2040;50.924;11.604;2022-10-16T07:49:38;15.60;99.90
4052;DHT22;2040;50.924;11.604;2022-10-16T07:52:03;15.60;99.90
4052;DHT22;2040;50.924;11.604;2022-10-16T07:54:29;15.70;99.90
4052;DHT22;2040;50.924;11.604;2022-10-16T07:56:54;15.80;99.90
4052;DHT22;2040;50.924;11.604;2022-10-16T07:59:20;15.80;99.90
4052;DHT22;2040;50.924;11.604;2022-10-16T08:01:46;15.80;99.90
4052;DHT22;2040;50.924;11.604;2022-10-16T08:04:11;15.80;99.90
4052;DHT22;2040;50.924;11.604;2022-10-16T08:06:39;15.80;99.90
4052;DHT22;2040;50.924;11.604;2022-10-16T08:09:06;15.80;99.90
4052;DHT22;2040;50.924;11.604;2022-10-16T08:11:31;15.90;99.90
4052;DHT22;2040;50.924;11.604;2022-10-16T08:13:57;15.90;99.90
4052;DHT22;2040;50.924;11.604;2022-10-16T08:16:23;15.90;99.90
4052;DHT22;2040;50.924;11.604;2022-10-16T08:18:48;16.10;99.90
4052;DHT22;2040;50.924;11.604;2022-10-16T08:21:17;16.10;99.90
4052;DHT22;2040;50.924;11.604;2022-10-16T08:23:43;16.20;99.90
4052;DHT22;2040;50.924;11.604;2022-10-16T08:26:10;16.30;99.90
4052;DHT22;2040;50.924;11.604;2022-10-16T08:28:36;16.30;99.90
4052;DHT22;2040;50.924;11.604;2022-10-16T08:33:31;16.30;99.90
4052;DHT22;2040;50.924;11.604;2022-10-16T08:35:57;16.30;99.90
4052;DHT22;2040;50.924;11.604;2022-10-16T08:38:23;16.30;99.90
4052;DHT22;2040;50.924;11.604;2022-10-16T08:40:48;16.30;99.90
4052;DHT22;2040;50.924;11.604;2022-10-16T08:48:30;16.40;99.90
4052;DHT22;2040;50.924;11.604;2022-10-16T08:51:02;16.40;99.90
4052;DHT22;2040;50.924;11.604;2022-10-16T08:53:36;16.50;99.90
4052;DHT22;2040;50.924;11.604;2022-10-16T08:56:03;16.60;99.90
4052;DHT22;2040;50.924;11.604;2022-10-16T08:58:30;16.70;99.90
4052;DHT22;2040;50.924;11.604;2022-10-16T09:00:58;16.70;99.90
4052;DHT22;2040;50.924;11.604;2022-10-16T09:06:24;16.70;99.90
4052;DHT22;2040;50.924;11.604;2022-10-16T09:11:55;16.90;99.90
4052;DHT22;2040;50.924;11.604;2022-10-16T09:20:31;17.30;99.90
4052;DHT22;2040;50.924;11.604;2022-10-16T09:23:15;17.30;99.90
4052;DHT22;2040;50.924;11.604;2022-10-16T09:25:44;17.30;99.90
4052;DHT22;2040;50.924;11.604;2022-10-16T09:28:10;17.30;99.90
4052;DHT22;2040;50.924;11.604;2022-10-16T09:30:37;17.30;99.90
4052;DHT22;2040;50.924;11.604;2022-10-16T09:33:04;17.30;99.90
4052;DHT22;2040;50.924;11.604;2022-10-16T09:38:07;17.40;99.90
4052;DHT22;2040;50.924;11.604;2022-10-16T09:40:38;17.50;99.90
4052;DHT22;2040;50.924;11.604;2022-10-16T09:46:05;17.70;99.90
4052;DHT22;2040;50.924;11.604;2022-10-16T09:48:44;17.80;99.90
4052;DHT22;2040;50.924;11.604;2022-10-16T09:51:33;17.90;99.90
4052;DHT22;2040;50.924;11.604;2022-10-16T09:56:35;18.10;99.90
4052;DHT22;2040;50.924;11.604;2022-10-16T10:01:41;18.10;99.90
4052;DHT22;2040;50.924;11.604;2022-10-16T10:04:08;18.10;99.90
4052;DHT22;2040;50.924;11.604;2022-10-16T10:06:37;18.10;99.90
4052;DHT22;2040;50.924;11.604;2022-10-16T10:12:00;18.10;99.90
4052;DHT22;2040;50.924;11.604;2022-10-16T10:19:53;18.00;99.90
4052;DHT22;2040;50.924;11.604;2022-10-16T10:27:49;18.20;99.90
4052;DHT22;2040;50.924;11.604;2022-10-16T10:36:14;18.60;99.90
4052;DHT22;2040;50.924;11.604;2022-10-16T10:39:00;18.90;99.90
4052;DHT22;2040;50.924;11.604;2022-10-16T10:46:36;19.70;99.90
4052;DHT22;2040;50.924;11.604;2022-10-16T10:54:42;19.30;99.90
4052;DHT22;2040;50.924;11.604;2022-10-16T11:02:41;19.00;99.90
4052;DHT22;2040;50.924;11.604;2022-10-16T11:08:07;19.00;99.90
4052;DHT22;2040;50.924;11.604;2022-10-16T11:15:55;18.80;99.90
4052;DHT22;2040;50.924;11.604;2022-10-16T11:18:47;18.80;99.90
4052;DHT22;2040;50.924;11.604;2022-10-16T11:21:18;18.70;99.90
4052;DHT22;2040;50.924;11.604;2022-10-16T11:23:59;18.80;99.90
4052;DHT22;2040;50.924;11.604;2022-10-16T11:26:34;18.70;99.90
4052;DHT22;2040;50.924;11.604;2022-10-16T11:29:01;18.60;99.90
4052;DHT22;2040;50.924;11.604;2022-10-16T11:31:39;18.60;99.90
4052;DHT22;2040;50.924;11.604;2022-10-16T11:34:26;18.60;99.90
4052;DHT22;2040;50.924;11.604;2022-10-16T11:42:04;18.80;99.90
4052;DHT22;2040;50.924;11.604;2022-10-16T11:44:53;18.80;99.90
4052;DHT22;2040;50.924;11.604;2022-10-16T11:50:06;19.10;99.90
4052;DHT22;2040;50.924;11.604;2022-10-16T11:52:51;19.20;99.90
4052;DHT22;2040;50.924;11.604;2022-10-16T11:55:20;19.30;99.90
4052;DHT22;2040;50.924;11.604;2022-10-16T11:57:54;19.30;99.90
4052;DHT22;2040;50.924;11.604;2022-10-16T12:00:29;19.30;99.90
4052;DHT22;2040;50.924;11.604;2022-10-16T12:03:20;19.30;99.90
4052;DHT22;2040;50.924;11.604;2022-10-16T12:06:06;19.40;99.90
4052;DHT22;2040;50.924;11.604;2022-10-16T12:08:36;19.50;99.90
4052;DHT22;2040;50.924;11.604;2022-10-16T12:13:50;19.60;99.90
4052;DHT22;2040;50.924;11.604;2022-10-16T12:18:43;19.90;99.90
4052;DHT22;2040;50.924;11.604;2022-10-16T12:21:11;20.10;99.90
4052;DHT22;2040;50.924;11.604;2022-10-16T12:23:51;20.30;99.90
4052;DHT22;2040;50.924;11.604;2022-10-16T12:26:44;20.50;99.90
4052;DHT22;2040;50.924;11.604;2022-10-16T12:31:50;21.10;99.90
4052;DHT22;2040;50.924;11.604;2022-10-16T12:34:32;21.30;99.90
4052;DHT22;2040;50.924;11.604;2022-10-16T12:37:54;21.60;99.90
4052;DHT22;2040;50.924;11.604;2022-10-16T12:39:56;21.70;99.90
4052;DHT22;2040;50.924;11.604;2022-10-16T12:44:48;21.50;99.90
4052;DHT22;2040;50.924;11.604;2022-10-16T12:49:58;20.90;99.90
4052;DHT22;2040;50.924;11.604;2022-10-16T12:52:36;20.70;99.90
4052;DHT22;2040;50.924;11.604;2022-10-16T12:55:04;20.60;99.90
4052;DHT22;2040;50.924;11.604;2022-10-16T13:05:38;20.30;99.90
4052;DHT22;2040;50.924;11.604;2022-10-16T13:17:01;20.40;99.90
4052;DHT22;2040;50.924;11.604;2022-10-16T13:19:42;20.40;99.90
4052;DHT22;2040;50.924;11.604;2022-10-16T13:22:32;20.40;99.90
4052;DHT22;2040;50.924;11.604;2022-10-16T13:27:56;21.00;99.90
4052;DHT22;2040;50.924;11.604;2022-10-16T13:30:26;21.20;99.90
4052;DHT22;2040;50.924;11.604;2022-10-16T13:33:17;21.20;99.90
4052;DHT22;2040;50.924;11.604;2022-10-16T13:35:53;21.20;99.90
4052;DHT22;2040;50.924;11.604;2022-10-16T13:38:30;21.40;99.90
4052;DHT22;2040;50.924;11.604;2022-10-16T13:43:45;22.40;99.90
4052;DHT22;2040;50.924;11.604;2022-10-16T13:46:18;22.50;99.90
4052;DHT22;2040;50.924;11.604;2022-10-16T13:48:45;22.30;99.90
4052;DHT22;2040;50.924;11.604;2022-10-16T13:51:21;22.30;99.90
4052;DHT22;2040;50.924;11.604;2022-10-16T13:53:47;21.80;99.90
4052;DHT22;2040;50.924;11.604;2022-10-16T13:56:18;21.40;99.90
4052;DHT22;2040;50.924;11.604;2022-10-16T13:58:45;21.10;99.90
4052;DHT22;2040;50.924;11.604;2022-10-16T14:01:23;20.90;99.90
4052;DHT22;2040;50.924;11.604;2022-10-16T14:03:51;20.80;99.90
4052;DHT22;2040;50.924;11.604;2022-10-16T14:06:19;20.90;99.90
4052;DHT22;2040;50.924;11.604;2022-10-16T14:09:14;21.30;99.90
4052;DHT22;2040;50.924;11.604;2022-10-16T14:11:51;21.70;99.90
4052;DHT22;2040;50.924;11.604;2022-10-16T14:14:22;21.70;99.90
4052;DHT22;2040;50.924;11.604;2022-10-16T14:16:48;21.60;99.90
4052;DHT22;2040;50.924;11.604;2022-10-16T14:19:20;21.60;99.90
4052;DHT22;2040;50.924;11.604;2022-10-16T14:21:48;21.30;99.90
4052;DHT22;2040;50.924;11.604;2022-10-16T14:24:31;21.20;99.90
4052;DHT22;2040;50.924;11.604;2022-10-16T14:26:58;20.90;99.90
4052;DHT22;2040;50.924;11.604;2022-10-16T14:29:25;20.90;99.90
4052;DHT22;2040;50.924;11.604;2022-10-16T14:32:05;20.80;99.90
4052;DHT22;2040;50.924;11.604;2022-10-16T14:34:38;20.80;99.90
4052;DHT22;2040;50.924;11.604;2022-10-16T14:37:27;20.80;99.90
4052;DHT22;2040;50.924;11.604;2022-10-16T14:39:55;21.00;99.90
4052;DHT22;2040;50.924;11.604;2022-10-16T14:42:22;20.90;99.90
4052;DHT22;2040;50.924;11.604;2022-10-16T14:44:51;20.80;99.90
4052;DHT22;2040;50.924;11.604;2022-10-16T14:47:20;20.80;99.90
4052;DHT22;2040;50.924;11.604;2022-10-16T14:49:50;20.70;99.90
4052;DHT22;2040;50.924;11.604;2022-10-16T14:52:16;20.50;99.90
4052;DHT22;2040;50.924;11.604;2022-10-16T14:54:42;20.60;99.90
4052;DHT22;2040;50.924;11.604;2022-10-16T14:57:18;20.70;99.90
4052;DHT22;2040;50.924;11.604;2022-10-16T14:59:45;20.70;99.90
4052;DHT22;2040;50.924;11.604;2022-10-16T15:02:24;20.70;99.90
4052;DHT22;2040;50.924;11.604;2022-10-16T15:04:50;20.80;99.90
4052;DHT22;2040;50.924;11.604;2022-10-16T15:07:16;20.90;99.90
4052;DHT22;2040;50.924;11.604;2022-10-16T15:09:42;20.90;99.90
4052;DHT22;2040;50.924;11.604;2022-10-16T15:12:08;20.90;99.90
4052;DHT22;2040;50.924;11.604;2022-10-16T15:14:33;20.90;99.90
4052;DHT22;2040;50.924;11.604;2022-10-16T15:16:59;20.80;99.90
4052;DHT22;2040;50.924;11.604;2022-10-16T15:19:24;20.80;99.90
4052;DHT22;2040;50.924;11.604;2022-10-16T15:21:50;20.70;99.90
4052;DHT22;2040;50.924;11.604;2022-10-16T15:24:16;20.70;99.90
4052;DHT22;2040;50.924;11.604;2022-10-16T15:26:42;20.70;99.90
4052;DHT22;2040;50.924;11.604;2022-10-16T15:29:07;20.40;99.90
4052;DHT22;2040;50.924;11.604;2022-10-16T15:31:33;20.20;99.90
4052;DHT22;2040;50.924;11.604;2022-10-16T15:33:59;20.10;99.90
4052;DHT22;2040;50.924;11.604;2022-10-16T15:36:34;20.10;99.90
4052;DHT22;2040;50.924;11.604;2022-10-16T15:39:08;19.90;99.90
4052;DHT22;2040;50.924;11.604;2022-10-16T15:41:36;19.80;99.90
4052;DHT22;2040;50.924;11.604;2022-10-16T15:44:01;19.60;99.90
4052;DHT22;2040;50.924;11.604;2022-10-16T15:46:27;19.50;99.90
4052;DHT22;2040;50.924;11.604;2022-10-16T15:48:57;19.50;99.90
4052;DHT22;2040;50.924;11.604;2022-10-16T15:51:24;19.30;99.90
4052;DHT22;2040;50.924;11.604;2022-10-16T15:53:50;19.30;99.90
4052;DHT22;2040;50.924;11.604;2022-10-16T15:56:17;19.40;99.90
4052;DHT22;2040;50.924;11.604;2022-10-16T15:58:43;19.20;99.90
4052;DHT22;2040;50.924;11.604;2022-10-16T16:01:09;19.20;99.90
4052;DHT22;2040;50.924;11.604;2022-10-16T16:03:37;19.10;99.90
4052;DHT22;2040;50.924;11.604;2022-10-16T16:06:09;19.20;99.90
4052;DHT22;2040;50.924;11.604;2022-10-16T16:08:35;19.00;99.90
4052;DHT22;2040;50.924;11.604;2022-10-16T16:11:09;18.90;99.90
4052;DHT22;2040;50.924;11.604;2022-10-16T16:13:35;18.80;99.90
4052;DHT22;2040;50.924;11.604;2022-10-16T16:16:14;18.70;99.90
4052;DHT22;2040;50.924;11.604;2022-10-16T16:18:41;18.50;99.90
4052;DHT22;2040;50.924;11.604;2022-10-16T16:21:07;18.40;99.90
4052;DHT22;2040;50.924;11.604;2022-10-16T16:23:33;18.20;99.90
4052;DHT22;2040;50.924;11.604;2022-10-16T16:28:46;18.00;99.90
4052;DHT22;2040;50.924;11.604;2022-10-16T16:31:11;17.90;99.90
4052;DHT22;2040;50.924;11.604;2022-10-16T16:33:37;17.80;99.90
4052;DHT22;2040;50.924;11.604;2022-10-16T16:36:05;17.60;99.90
4052;DHT22;2040;50.924;11.604;2022-10-16T16:38:32;17.50;99.90
4052;DHT22;2040;50.924;11.604;2022-10-16T16:40:58;17.40;99.90
4052;DHT22;2040;50.924;11.604;2022-10-16T16:43:27;17.40;99.90
4052;DHT22;2040;50.924;11.604;2022-10-16T16:45:53;17.30;99.90
4052;DHT22;2040;50.924;11.604;2022-10-16T16:48:20;17.30;99.90
4052;DHT22;2040;50.924;11.604;2022-10-16T16:50:45;17.20;99.90
4052;DHT22;2040;50.924;11.604;2022-10-16T16:53:11;17.10;99.90
4052;DHT22;2040;50.924;11.604;2022-10-16T16:55:36;17.00;99.90
4052;DHT22;2040;50.924;11.604;2022-10-16T16:58:02;17.00;99.90
4052;DHT22;2040;50.924;11.604;2022-10-16T17:00:29;16.90;99.90
4052;DHT22;2040;50.924;11.604;2022-10-16T17:02:56;16.80;99.90
4052;DHT22;2040;50.924;11.604;2022-10-16T17:05:22;16.70;99.90
4052;DHT22;2040;50.924;11.604;2022-10-16T17:07:48;16.80;99.90
4052;DHT22;2040;50.924;11.604;2022-10-16T17:10:14;16.80;99.90
4052;DHT22;2040;50.924;11.604;2022-10-16T17:12:39;16.80;99.90
4052;DHT22;2040;50.924;11.604;2022-10-16T17:15:06;16.80;99.90
4052;DHT22;2040;50.924;11.604;2022-10-16T17:17:32;16.80;99.90
4052;DHT22;2040;50.924;11.604;2022-10-16T17:19:57;16.90;99.90
4052;DHT22;2040;50.924;11.604;2022-10-16T17:22:23;16.90;99.90
4052;DHT22;2040;50.924;11.604;2022-10-16T17:24:49;17.00;99.90
4052;DHT22;2040;50.924;11.604;2022-10-16T17:27:17;17.00;99.90
4052;DHT22;2040;50.924;11.604;2022-10-16T17:29:43;17.10;99.90
4052;DHT22;2040;50.924;11.604;2022-10-16T17:32:09;17.00;99.90
4052;DHT22;2040;50.924;11.604;2022-10-16T17:34:35;17.10;99.90
4052;DHT22;2040;50.924;11.604;2022-10-16T17:37:01;17.10;99.90
4052;DHT22;2040;50.924;11.604;2022-10-16T17:39:26;17.00;99.90
4052;DHT22;2040;50.924;11.604;2022-10-16T17:41:52;17.10;99.90
4052;DHT22;2040;50.924;11.604;2022-10-16T17:44:18;17.10;99.90
4052;DHT22;2040;50.924;11.604;2022-10-16T17:46:52;17.10;99.90
4052;DHT22;2040;50.924;11.604;2022-10-16T17:49:18;17.20;99.90
4052;DHT22;2040;50.924;11.604;2022-10-16T17:51:44;17.00;99.90
4052;DHT22;2040;50.924;11.604;2022-10-16T17:54:10;17.10;99.90
4052;DHT22;2040;50.924;11.604;2022-10-16T17:56:36;17.00;99.90
4052;DHT22;2040;50.924;11.604;2022-10-16T17:59:03;17.10;99.90
4052;DHT22;2040;50.924;11.604;2022-10-16T18:01:39;17.10;99.90
4052;DHT22;2040;50.924;11.604;2022-10-16T18:04:08;17.00;99.90
4052;DHT22;2040;50.924;11.604;2022-10-16T18:06:35;17.00;99.90
4052;DHT22;2040;50.924;11.604;2022-10-16T18:09:01;16.90;99.90